createdAt,value
2018-03-20T00:03:38.789Z,-4.00
2018-03-20T00:09:06.947Z,-4.00
2018-03-20T00:14:35.854Z,-3.90
2018-03-20T00:20:04.905Z,-3.90
2018-03-20T00:25:33.050Z,-3.90
2018-03-20T00:31:01.970Z,-3.90
2018-03-20T00:36:30.898Z,-4.00
2018-03-20T00:41:59.051Z,-4.00
2018-03-20T00:47:27.210Z,-4.00
2018-03-20T00:52:55.364Z,-4.00
2018-03-20T00:58:23.544Z,-4.00
2018-03-20T01:03:51.728Z,-4.10
2018-03-20T01:09:19.900Z,-4.00
2018-03-20T01:14:48.090Z,-4.00
2018-03-20T01:20:16.270Z,-4.00
2018-03-20T01:25:45.196Z,-4.00
2018-03-20T01:31:14.208Z,-4.00
2018-03-20T01:36:42.370Z,-4.00
2018-03-20T01:42:12.238Z,-4.00
2018-03-20T01:47:40.426Z,-4.00
2018-03-20T01:53:19.429Z,-4.00
2018-03-20T01:58:48.803Z,-4.00
2018-03-20T02:04:16.976Z,-4.00
2018-03-20T02:09:45.916Z,-4.20
2018-03-20T02:15:14.069Z,-4.20
2018-03-20T02:20:42.258Z,-4.20
2018-03-20T02:26:10.409Z,-4.20
2018-03-20T02:31:38.550Z,-4.10
2018-03-20T02:37:06.700Z,-4.10
2018-03-20T02:42:34.854Z,-4.10
2018-03-20T02:48:03.816Z,-4.10
2018-03-20T02:53:31.975Z,-4.10
2018-03-20T02:59:00.144Z,-4.10
2018-03-20T03:04:28.287Z,-4.10
2018-03-20T03:09:56.434Z,-4.00
2018-03-20T03:15:24.608Z,-4.10
2018-03-20T03:20:52.795Z,-4.10
2018-03-20T03:26:21.757Z,-4.20
2018-03-20T03:31:49.919Z,-4.30
2018-03-20T03:37:18.108Z,-4.30
2018-03-20T03:42:46.285Z,-4.30
2018-03-20T03:48:14.455Z,-4.30
2018-03-20T03:53:42.620Z,-4.30
2018-03-20T03:59:10.792Z,-4.30
2018-03-20T04:04:38.960Z,-4.40
2018-03-20T04:10:07.123Z,-4.40
2018-03-20T04:15:35.295Z,-4.40
2018-03-20T04:21:03.734Z,-4.40
2018-03-20T04:26:31.903Z,-4.40
2018-03-20T04:32:00.060Z,-4.40
2018-03-20T04:37:28.198Z,-4.40
2018-03-20T04:42:56.401Z,-4.40
2018-03-20T04:48:24.604Z,-4.40
2018-03-20T04:53:52.778Z,-4.40
2018-03-20T04:59:21.734Z,-4.40
2018-03-20T05:04:49.946Z,-4.40
2018-03-20T05:10:18.147Z,-4.40
2018-03-20T05:15:47.141Z,-4.50
2018-03-20T05:21:18.845Z,-4.50
2018-03-20T05:26:47.150Z,-4.50
2018-03-20T05:32:15.346Z,-4.50
2018-03-20T05:37:43.547Z,-4.50
2018-03-20T05:43:12.496Z,-4.40
2018-03-20T05:48:47.962Z,-4.40
2018-03-20T05:54:16.922Z,-4.40
2018-03-20T05:59:45.104Z,-4.40
2018-03-20T06:05:13.291Z,-4.40
2018-03-20T06:10:41.450Z,-4.30
2018-03-20T06:16:09.599Z,-4.20
2018-03-20T06:21:38.527Z,-4.10
2018-03-20T06:27:06.687Z,-4.10
2018-03-20T06:32:35.618Z,-4.00
2018-03-20T06:38:03.774Z,-4.00
2018-03-20T06:43:32.068Z,-3.90
2018-03-20T06:49:00.209Z,-3.80
2018-03-20T06:54:28.374Z,-3.70
2018-03-20T06:59:57.316Z,-3.60
2018-03-20T07:05:26.266Z,-3.60
2018-03-20T07:10:55.189Z,-3.70
2018-03-20T07:16:23.345Z,-3.70
2018-03-20T07:21:51.555Z,-3.60
2018-03-20T07:27:19.731Z,-3.70
2018-03-20T07:32:48.758Z,-3.50
2018-03-20T07:38:16.941Z,-3.50
2018-03-20T07:43:45.102Z,-3.30
2018-03-20T07:49:13.278Z,-3.10
2018-03-20T07:54:41.412Z,-2.90
2018-03-20T08:00:09.620Z,-2.70
2018-03-20T08:05:37.760Z,-2.50
2018-03-20T08:11:05.934Z,-2.40
2018-03-20T08:16:34.864Z,-1.80
2018-03-20T08:22:03.012Z,-1.90
2018-03-20T08:27:31.164Z,-1.80
2018-03-20T08:32:59.325Z,-1.80
2018-03-20T08:38:27.474Z,-1.60
2018-03-20T08:43:55.613Z,-1.20
2018-03-20T08:49:23.759Z,-0.80
2018-03-20T08:54:51.961Z,-0.50
2018-03-20T09:00:20.128Z,-0.30
2018-03-20T09:05:48.324Z,-0.10
2018-03-20T09:11:17.248Z,0.00
2018-03-20T09:16:45.418Z,-0.10
2018-03-20T09:22:13.551Z,0.10
2018-03-20T09:27:41.686Z,0.20
2018-03-20T09:33:09.843Z,0.30
2018-03-20T09:38:37.992Z,0.40
2018-03-20T09:44:06.892Z,0.40
2018-03-20T09:49:35.029Z,0.30
2018-03-20T09:55:03.187Z,0.60
2018-03-20T10:00:31.345Z,0.90
2018-03-20T10:05:59.500Z,1.30
2018-03-20T10:11:28.401Z,1.40
2018-03-20T10:16:56.577Z,1.40
2018-03-20T10:22:24.712Z,1.60
2018-03-20T10:27:53.068Z,1.40
2018-03-20T10:33:21.191Z,1.40
2018-03-20T10:38:49.397Z,1.60
2018-03-20T10:44:17.536Z,1.60
2018-03-20T10:49:45.685Z,1.60
2018-03-20T10:55:14.603Z,2.40
2018-03-20T11:00:49.237Z,2.30
2018-03-20T11:06:17.413Z,2.70
2018-03-20T11:11:46.344Z,1.90
2018-03-20T11:17:15.239Z,1.90
2018-03-20T11:22:43.487Z,1.90
2018-03-20T11:28:11.681Z,2.40
2018-03-20T11:33:39.883Z,3.30
2018-03-20T11:39:08.024Z,3.80
2018-03-20T11:44:36.140Z,3.70
2018-03-20T11:50:04.290Z,3.10
2018-03-20T11:55:32.451Z,2.50
2018-03-20T12:01:00.591Z,1.80
2018-03-20T12:06:28.739Z,1.60
2018-03-20T12:11:56.883Z,1.60
2018-03-20T12:17:25.774Z,2.50
2018-03-20T12:22:53.995Z,2.50
2018-03-20T12:28:22.150Z,2.40
2018-03-20T12:33:50.441Z,2.50
2018-03-20T12:39:18.609Z,2.30
2018-03-20T12:44:47.578Z,3.00
2018-03-20T12:50:15.709Z,3.00
2018-03-20T12:55:43.841Z,2.90
2018-03-20T13:01:11.976Z,3.20
2018-03-20T13:06:40.119Z,2.60
2018-03-20T13:12:09.010Z,2.80
2018-03-20T13:17:37.161Z,2.80
2018-03-20T13:23:06.060Z,6.20
2018-03-20T13:28:34.236Z,6.20
2018-03-20T13:34:02.415Z,5.90
2018-03-20T13:39:30.566Z,5.80
2018-03-20T13:44:59.476Z,4.70
2018-03-20T13:50:27.673Z,4.60
2018-03-20T13:55:56.524Z,6.20
2018-03-20T14:01:24.679Z,6.20
2018-03-20T14:06:53.633Z,5.80
2018-03-20T14:12:22.546Z,5.50
2018-03-20T14:17:51.485Z,5.30
2018-03-20T14:23:19.732Z,5.30
2018-03-20T14:28:47.872Z,5.10
2018-03-20T14:34:16.801Z,5.00
2018-03-20T14:39:44.935Z,5.00
2018-03-20T14:45:13.114Z,4.10
2018-03-20T14:50:42.042Z,3.80
2018-03-20T14:56:10.945Z,3.40
2018-03-20T15:01:39.268Z,3.40
2018-03-20T15:07:07.405Z,3.20
2018-03-20T15:12:35.542Z,3.10
2018-03-20T15:18:03.701Z,3.30
2018-03-20T15:23:31.903Z,3.70
2018-03-20T15:28:59.980Z,4.40
2018-03-20T15:34:28.126Z,4.70
2018-03-20T15:39:57.035Z,5.80
2018-03-20T15:45:25.178Z,5.80
2018-03-20T15:50:53.497Z,5.10
2018-03-20T15:56:23.331Z,4.80
2018-03-20T16:01:52.170Z,4.80
2018-03-20T16:07:20.390Z,4.70
2018-03-20T16:12:48.585Z,5.60
2018-03-20T16:18:16.730Z,6.00
2018-03-20T16:23:44.883Z,5.70
2018-03-20T16:29:13.794Z,3.80
2018-03-20T16:34:41.969Z,3.80
2018-03-20T16:40:10.085Z,3.10
2018-03-20T16:45:38.215Z,2.40
2018-03-20T16:51:08.002Z,2.00
2018-03-20T16:56:36.154Z,1.60
2018-03-20T17:02:05.050Z,1.10
2018-03-20T17:07:33.202Z,1.10
2018-03-20T17:13:01.517Z,0.90
2018-03-20T17:18:29.710Z,0.70
2018-03-20T17:23:58.771Z,0.50
2018-03-20T17:29:26.947Z,0.30
2018-03-20T17:34:55.103Z,0.10
2018-03-20T17:40:24.051Z,0.00
2018-03-20T17:45:52.311Z,-0.10
2018-03-20T17:51:21.461Z,-0.20
2018-03-20T17:56:49.597Z,-0.20
2018-03-20T18:02:17.825Z,-0.30
2018-03-20T18:07:46.019Z,-0.40
2018-03-20T18:13:14.167Z,-0.50
2018-03-20T18:18:42.346Z,-0.60
2018-03-20T18:24:11.296Z,-0.70
2018-03-20T18:29:39.436Z,-0.70
2018-03-20T18:35:07.734Z,-0.80
2018-03-20T18:40:36.790Z,-0.90
2018-03-20T18:46:04.930Z,-0.90
2018-03-20T18:51:33.347Z,-1.00
2018-03-20T18:57:01.555Z,-1.10
2018-03-20T19:02:29.732Z,-1.10
2018-03-20T19:07:57.890Z,-1.10
2018-03-20T19:13:26.117Z,-1.10
2018-03-20T19:18:54.277Z,-1.10
2018-03-20T19:24:22.570Z,-1.00
2018-03-20T19:29:50.826Z,-0.90
2018-03-20T19:35:19.294Z,-0.90
2018-03-20T19:40:47.468Z,-1.00
2018-03-20T19:46:18.436Z,-1.20
2018-03-20T19:51:46.591Z,-1.20
2018-03-20T19:57:14.766Z,-1.20
2018-03-20T20:02:42.996Z,-1.20
2018-03-20T20:08:12.584Z,-1.30
2018-03-20T20:13:40.733Z,-1.50
2018-03-20T20:19:08.893Z,-1.60
2018-03-20T20:24:37.103Z,-1.60
2018-03-20T20:30:07.654Z,-1.50
2018-03-20T20:35:35.869Z,-1.50
2018-03-20T20:41:04.105Z,-1.40
2018-03-20T20:46:32.311Z,-1.40
2018-03-20T20:52:00.559Z,-1.50
2018-03-20T20:57:30.833Z,-1.40
2018-03-20T21:02:59.055Z,-1.30
2018-03-20T21:08:27.203Z,-1.20
2018-03-20T21:13:55.381Z,-1.10
2018-03-20T21:19:24.350Z,-1.10
2018-03-20T21:24:52.583Z,-1.00
2018-03-20T21:30:20.859Z,-1.00
2018-03-20T21:35:49.156Z,-1.00
2018-03-20T21:41:18.133Z,-1.00
2018-03-20T21:46:47.294Z,-1.00
2018-03-20T21:52:16.522Z,-0.90
2018-03-20T21:57:44.685Z,-1.00
2018-03-20T22:03:13.612Z,-1.00
2018-03-20T22:08:41.770Z,-1.00
2018-03-20T22:14:09.910Z,-1.00
2018-03-20T22:19:38.057Z,-1.00
2018-03-20T22:25:06.210Z,-0.90
2018-03-20T22:30:34.370Z,-0.90
2018-03-20T22:36:02.517Z,-0.80
2018-03-20T22:41:30.688Z,-0.80
2018-03-20T22:46:58.930Z,-0.80
2018-03-20T22:52:27.087Z,-0.80
2018-03-20T22:57:55.237Z,-0.80
2018-03-20T23:03:25.112Z,-0.80
2018-03-20T23:08:53.267Z,-0.80
2018-03-20T23:14:21.462Z,-0.80
2018-03-20T23:19:50.595Z,-0.90
2018-03-20T23:25:18.784Z,-0.80
2018-03-20T23:30:46.974Z,-0.90
2018-03-20T23:36:15.395Z,-0.90
2018-03-20T23:41:44.491Z,-1.00
2018-03-20T23:47:13.410Z,-0.90
2018-03-20T23:52:41.573Z,-0.90
2018-03-20T23:58:09.763Z,-0.90
